createdAt,value
2022-07-31T00:01:16.668Z,16.96
2022-07-31T00:11:22.924Z,16.85
2022-07-31T00:21:30.141Z,16.74
2022-07-31T00:31:38.948Z,16.64
2022-07-31T00:41:47.246Z,16.51
2022-07-31T00:51:54.423Z,16.31
2022-07-31T01:02:00.728Z,16.14
2022-07-31T01:12:14.286Z,15.96
2022-07-31T01:22:34.141Z,15.86
2022-07-31T01:32:48.003Z,15.81
2022-07-31T01:43:01.434Z,15.78
2022-07-31T01:53:10.358Z,15.77
2022-07-31T02:03:17.890Z,15.71
2022-07-31T02:13:45.860Z,15.63
2022-07-31T02:23:52.513Z,15.59
2022-07-31T02:33:59.648Z,15.54
2022-07-31T02:44:07.773Z,15.48
2022-07-31T02:54:15.228Z,15.41
2022-07-31T03:04:22.775Z,15.33
2022-07-31T03:14:33.041Z,15.31
2022-07-31T03:24:39.797Z,15.27
2022-07-31T03:34:46.826Z,15.24
2022-07-31T03:44:54.864Z,15.22
2022-07-31T03:55:02.529Z,15.22
2022-07-31T04:05:10.974Z,15.23
2022-07-31T04:15:18.017Z,15.22
2022-07-31T04:25:23.953Z,15.21
2022-07-31T04:35:30.998Z,15.20
2022-07-31T04:45:38.523Z,15.13
2022-07-31T04:56:04.697Z,15.08
2022-07-31T05:06:15.892Z,14.97
2022-07-31T05:16:24.313Z,14.89
2022-07-31T05:26:32.113Z,14.84
2022-07-31T05:36:39.685Z,14.81
2022-07-31T05:46:46.739Z,14.75
2022-07-31T05:56:53.812Z,14.72
2022-07-31T06:07:00.963Z,14.74
2022-07-31T06:17:06.483Z,14.72
2022-07-31T06:27:21.452Z,14.69
2022-07-31T06:37:40.193Z,14.70
2022-07-31T06:47:47.230Z,14.70
2022-07-31T06:57:54.543Z,14.69
2022-07-31T07:08:01.614Z,14.74
2022-07-31T07:18:09.368Z,14.73
2022-07-31T07:28:30.608Z,14.73
2022-07-31T07:38:38.332Z,14.73
2022-07-31T07:48:46.634Z,14.71
2022-07-31T07:58:53.803Z,14.74
2022-07-31T08:09:01.325Z,14.75
2022-07-31T08:19:07.577Z,14.73
2022-07-31T08:29:14.667Z,14.74
2022-07-31T08:39:22.484Z,14.72
2022-07-31T08:49:31.076Z,14.75
2022-07-31T08:59:37.914Z,14.75
2022-07-31T09:09:52.151Z,14.75
2022-07-31T09:19:59.359Z,14.79
2022-07-31T09:30:08.537Z,14.82
2022-07-31T09:40:14.975Z,14.87
2022-07-31T09:50:28.275Z,14.89
2022-07-31T10:00:35.949Z,14.91
2022-07-31T10:10:48.290Z,14.93
2022-07-31T10:20:58.525Z,14.97
2022-07-31T10:31:07.003Z,15.10
2022-07-31T10:41:16.950Z,15.23
2022-07-31T10:51:24.803Z,15.29
2022-07-31T11:01:32.315Z,15.32
2022-07-31T11:11:39.978Z,15.39
2022-07-31T11:21:47.103Z,15.45
2022-07-31T11:31:54.221Z,15.54
2022-07-31T11:42:03.841Z,15.64
2022-07-31T11:52:30.820Z,15.68
2022-07-31T12:02:41.615Z,15.73
2022-07-31T12:12:48.965Z,15.70
2022-07-31T12:23:01.323Z,15.65
2022-07-31T12:33:06.298Z,15.64
2022-07-31T12:43:13.327Z,15.68
2022-07-31T12:53:20.499Z,15.76
2022-07-31T13:03:45.314Z,15.86
2022-07-31T13:13:52.722Z,15.84
2022-07-31T13:23:59.804Z,15.86
2022-07-31T13:34:07.345Z,15.81
2022-07-31T13:44:14.396Z,15.81
2022-07-31T13:54:24.398Z,15.83
2022-07-31T14:04:38.814Z,15.85
2022-07-31T14:14:46.648Z,15.85
2022-07-31T14:24:53.295Z,15.81
2022-07-31T14:35:04.583Z,15.80
2022-07-31T14:45:15.533Z,15.80
2022-07-31T14:55:24.549Z,15.79
2022-07-31T15:06:49.242Z,15.81
2022-07-31T15:15:59.751Z,15.88
2022-07-31T15:26:07.195Z,15.92
2022-07-31T15:36:15.382Z,15.98
2022-07-31T15:46:22.871Z,16.07
2022-07-31T15:56:28.997Z,16.20
2022-07-31T16:06:36.295Z,16.33
2022-07-31T16:16:45.892Z,16.47
2022-07-31T16:26:53.462Z,16.58
2022-07-31T16:37:00.603Z,16.59
2022-07-31T16:47:08.942Z,16.60
2022-07-31T16:57:16.791Z,16.58
2022-07-31T17:07:23.881Z,16.58
2022-07-31T17:17:31.397Z,16.55
2022-07-31T17:27:39.040Z,16.52
2022-07-31T17:37:46.130Z,16.48
2022-07-31T17:48:03.314Z,16.50
2022-07-31T17:58:11.653Z,16.56
2022-07-31T18:08:18.750Z,16.64
2022-07-31T18:18:26.079Z,16.69
2022-07-31T18:28:33.631Z,16.69
2022-07-31T18:38:41.094Z,16.65
2022-07-31T18:48:54.544Z,16.54
2022-07-31T18:59:02.566Z,16.40
2022-07-31T19:09:09.586Z,16.30
2022-07-31T19:19:17.075Z,16.20
2022-07-31T19:29:25.020Z,16.14
2022-07-31T19:39:31.412Z,16.09
2022-07-31T19:49:41.299Z,16.03
2022-07-31T19:59:48.540Z,15.99
2022-07-31T20:09:54.952Z,15.94
2022-07-31T20:20:15.682Z,15.90
2022-07-31T20:40:31.923Z,15.90
2022-07-31T20:50:39.147Z,15.92
2022-07-31T21:00:47.787Z,15.92
2022-07-31T21:10:55.165Z,15.94
2022-07-31T21:21:02.386Z,15.97
2022-07-31T21:31:10.329Z,15.87
2022-07-31T21:41:17.770Z,15.88
2022-07-31T21:51:25.870Z,15.81
2022-07-31T22:01:33.286Z,15.72
2022-07-31T22:11:40.522Z,15.64
2022-07-31T22:21:46.686Z,15.51
2022-07-31T22:31:53.900Z,15.40
2022-07-31T22:42:01.433Z,15.31
2022-07-31T22:52:12.303Z,15.17
2022-07-31T23:02:20.423Z,15.05
2022-07-31T23:12:28.364Z,14.97
2022-07-31T23:22:34.956Z,14.79
2022-07-31T23:32:42.127Z,14.55
2022-07-31T23:42:49.173Z,14.50
2022-07-31T23:52:56.460Z,14.30
